Terminal Aerodrome Forecast
Issued by NWS Greer, SC

Home | Current Version | Previous Version | Text Only | Print | Product List | Glossary On
Versions: 1 2 3 4 5 6 7 8 9 10 11 12 13 14 15 16 17 18 19 20 21 22 23 24 25 26 27 28 29 30 31 32 33 34 35 36 37 38 39 40 41
000
FTUS42 KGSP 030623 AAA
TAFAVL
TAF AMD
KAVL 030623Z 0306/0406 00000KT P6SM BKN009 BKN080
     FM030800 00000KT 6SM BR VCSH OVC009
      TEMPO 0310/0314 4SM -SHRA BR BKN040
     FM031500 25003KT P6SM OVC040 PROB30 0316/0320 5SM -SHRA OVC030
     FM032000 24006KT 6SM -SHRA VCTS OVC040CB
     FM040100 31008KT P6SM BKN140=

USA.gov is the U.S. government's official web portal to all federal, state and local government web resources and services.